createdAt,value
2019-04-07T00:00:39.381Z,8.96
2019-04-07T00:04:09.455Z,9.14
2019-04-07T00:07:40.144Z,9.33
2019-04-07T00:11:10.620Z,9.46
2019-04-07T00:14:40.826Z,9.64
2019-04-07T00:18:10.967Z,9.86
2019-04-07T00:21:41.007Z,10.02
2019-04-07T00:25:11.871Z,10.2
2019-04-07T00:28:42.128Z,10.29
2019-04-07T00:32:12.338Z,10.22
2019-04-07T00:35:42.549Z,10.38
2019-04-07T00:39:12.639Z,10.55
2019-04-07T00:42:43.042Z,10.54
2019-04-07T00:46:13.634Z,10.45
2019-04-07T00:49:44.372Z,10.3
2019-04-07T00:53:15.630Z,10.42
2019-04-07T00:56:45.852Z,10.43
2019-04-07T01:00:17.929Z,10.55
2019-04-07T01:03:48.242Z,10.63
2019-04-07T01:07:19.132Z,10.66
2019-04-07T01:10:49.363Z,10.75
2019-04-07T01:14:19.370Z,10.8
2019-04-07T01:17:49.906Z,10.79
2019-04-07T01:21:20.346Z,10.87
2019-04-07T01:24:50.633Z,11.03
2019-04-07T01:28:20.907Z,11.07
2019-04-07T01:31:51.616Z,10.98
2019-04-07T01:35:22.237Z,10.57
2019-04-07T01:38:52.337Z,10.42
2019-04-07T01:42:28.066Z,10.41
2019-04-07T01:46:12.703Z,10.43
2019-04-07T01:49:50.185Z,10.13
2019-04-07T01:53:29.355Z,10.29
2019-04-07T01:57:15.606Z,10.46
2019-04-07T02:03:19.596Z,10.72
2019-04-07T02:07:07.310Z,10.81
2019-04-07T02:10:53.667Z,10.82
2019-04-07T02:14:37.769Z,10.92
2019-04-07T02:18:14.754Z,10.97
2019-04-07T02:21:53.561Z,11.04
2019-04-07T02:25:41.584Z,11.1
2019-04-07T02:29:20.395Z,11.19
2019-04-07T02:32:55.550Z,11.32
2019-04-07T02:36:33.729Z,11.33
2019-04-07T02:40:14.712Z,11.39
2019-04-07T02:43:55.472Z,11.4
2019-04-07T02:47:39.375Z,11.43
2019-04-07T02:51:24.200Z,11.44
2019-04-07T02:55:11.726Z,11.41
2019-04-07T02:59:23.218Z,11.37
2019-04-07T03:00:24.721Z,11.36
2019-04-07T03:05:38.925Z,11.33
2019-04-07T03:13:09.165Z,11.18
2019-04-07T03:16:51.489Z,11.13
2019-04-07T03:23:22.641Z,11.09
2019-04-07T03:29:26.838Z,10.74
2019-04-07T03:35:28.620Z,10.49
2019-04-07T03:39:17.979Z,10.32
2019-04-07T03:42:57.365Z,10.31
2019-04-07T03:46:34.639Z,10.42
2019-04-07T03:50:26.393Z,10.26
2019-04-07T03:54:03.889Z,10.29
2019-04-07T04:00:04.188Z,10.22
2019-04-07T04:03:42.233Z,10.23
2019-04-07T04:07:37.081Z,10.36
2019-04-07T04:11:14.181Z,10.38
2019-04-07T04:14:50.656Z,10.35
2019-04-07T04:18:21.057Z,10.47
2019-04-07T04:21:51.286Z,10.64
2019-04-07T04:25:23.027Z,10.75
2019-04-07T04:28:53.305Z,10.78
2019-04-07T04:32:23.511Z,10.93
2019-04-07T04:35:53.864Z,11.13
2019-04-07T04:39:24.910Z,11.32
2019-04-07T04:42:55.287Z,11.45
2019-04-07T04:46:25.903Z,11.45
2019-04-07T04:49:56.078Z,11.37
2019-04-07T04:53:26.866Z,11.59
2019-04-07T04:56:57.042Z,11.82
2019-04-07T05:00:18.790Z,11.95
2019-04-07T05:03:49.413Z,11.77
2019-04-07T05:07:19.614Z,11.71
2019-04-07T05:10:49.767Z,11.73
2019-04-07T05:14:20.017Z,11.76
2019-04-07T05:17:50.374Z,11.86
2019-04-07T05:21:20.734Z,12.03
2019-04-07T05:24:50.986Z,12.22
2019-04-07T05:28:21.246Z,12.41
2019-04-07T05:31:51.403Z,12.56
2019-04-07T05:35:22.431Z,12.52
2019-04-07T05:38:53.230Z,12.62
2019-04-07T05:42:23.497Z,12.71
2019-04-07T05:45:54.283Z,12.85
2019-04-07T05:49:24.417Z,12.69
2019-04-07T05:52:54.499Z,12.87
2019-04-07T05:56:28.145Z,13.11
2019-04-07T05:59:59.221Z,13.29
2019-04-07T06:03:29.282Z,13.37
2019-04-07T06:06:59.421Z,13.58
2019-04-07T06:10:29.984Z,13.88
2019-04-07T06:14:00.876Z,14.02
2019-04-07T06:17:31.486Z,14.36
2019-04-07T06:21:01.714Z,14.39
2019-04-07T06:24:33.200Z,14.1
2019-04-07T06:28:04.495Z,14.14
2019-04-07T06:31:34.806Z,13.95
2019-04-07T06:35:05.276Z,13.96
2019-04-07T06:38:37.920Z,14.12
2019-04-07T06:42:12.021Z,14.23
2019-04-07T06:45:49.055Z,14.26
2019-04-07T06:49:29.472Z,14.39
2019-04-07T06:53:05.356Z,14.38
2019-04-07T06:56:53.862Z,14.54
2019-04-07T07:02:56.641Z,14.76
2019-04-07T07:07:48.167Z,15
2019-04-07T07:13:59.883Z,15.39
2019-04-07T07:17:37.630Z,14.72
2019-04-07T07:21:19.189Z,14.4
2019-04-07T07:24:50.234Z,13.67
2019-04-07T07:28:21.143Z,13.87
2019-04-07T07:31:53.058Z,14.28
2019-04-07T07:35:27.198Z,14.2
2019-04-07T07:39:01.191Z,14
2019-04-07T07:42:32.978Z,14.23
2019-04-07T07:46:03.229Z,14.6
2019-04-07T07:49:35.158Z,14.63
2019-04-07T07:53:08.630Z,14.84
2019-04-07T07:56:41.549Z,15.29
2019-04-07T08:00:14.584Z,15.37
2019-04-07T08:03:44.617Z,15.81
2019-04-07T08:07:16.351Z,15.84
2019-04-07T08:10:47.365Z,15.78
2019-04-07T08:14:18.305Z,15.69
2019-04-07T08:17:48.642Z,15.32
2019-04-07T08:21:20.080Z,15.14
2019-04-07T08:24:51.960Z,15.04
2019-04-07T08:28:22.254Z,15.15
2019-04-07T08:31:55.103Z,15.21
2019-04-07T08:35:25.493Z,15.4
2019-04-07T08:38:56.992Z,15.24
2019-04-07T08:42:27.903Z,15.11
2019-04-07T08:45:58.083Z,14.89
2019-04-07T08:49:28.338Z,14.98
2019-04-07T08:52:59.015Z,15.05
2019-04-07T08:56:29.197Z,15.21
2019-04-07T08:59:59.425Z,15.02
2019-04-07T09:00:20.288Z,15.05
2019-04-07T09:03:50.748Z,15.36
2019-04-07T09:07:23.352Z,15.26
2019-04-07T09:11:09.021Z,15.43
2019-04-07T09:14:40.746Z,15.56
2019-04-07T09:18:18.005Z,15.52
2019-04-07T09:21:58.626Z,15.7
2019-04-07T09:25:40.532Z,15.54
2019-04-07T09:32:43.861Z,16.04
2019-04-07T09:38:40.778Z,16.41
2019-04-07T09:42:18.701Z,16.32
2019-04-07T09:46:11.815Z,16.31
2019-04-07T09:49:56.130Z,16.25
2019-04-07T09:53:36.128Z,16.38
2019-04-07T09:57:17.980Z,16.51
2019-04-07T10:00:59.973Z,16.76
2019-04-07T10:04:42.110Z,16.84
2019-04-07T10:09:25.716Z,16.67
2019-04-07T10:13:27.444Z,17.08
2019-04-07T10:17:08.634Z,17.37
2019-04-07T10:20:47.816Z,17.52
2019-04-07T10:24:27.613Z,18.11
2019-04-07T10:28:07.288Z,17.91
2019-04-07T10:31:49.315Z,17.65
2019-04-07T10:35:31.800Z,18
2019-04-07T10:39:14.839Z,18.15
2019-04-07T10:43:00.690Z,18.27
2019-04-07T10:46:42.690Z,17.48
2019-04-07T10:51:27.526Z,17.6
2019-04-07T10:57:28.994Z,18.17
2019-04-07T11:00:35.133Z,18.6
2019-04-07T11:04:14.890Z,19.08
2019-04-07T11:07:58.638Z,19.84
2019-04-07T11:17:45.259Z,20.69
2019-04-07T11:21:20.131Z,20.54
2019-04-07T11:24:57.413Z,20.44
2019-04-07T11:28:48.061Z,20.55
2019-04-07T11:34:43.652Z,21.38
2019-04-07T11:40:48.938Z,22.19
2019-04-07T11:44:29.221Z,22.24
2019-04-07T11:48:35.382Z,22.28
2019-04-07T11:52:11.483Z,22.16
2019-04-07T11:55:48.747Z,21.76
2019-04-07T11:59:37.684Z,21.34
2019-04-07T12:03:18.225Z,21.21
2019-04-07T12:07:01.435Z,21.33
2019-04-07T12:10:54.916Z,21.44
2019-04-07T12:15:13.128Z,21.81
2019-04-07T12:18:59.181Z,22.29
2019-04-07T12:23:43.315Z,22.73
2019-04-07T12:27:25.898Z,23.4
2019-04-07T12:31:02.652Z,23.67
2019-04-07T12:37:02.450Z,23.82
2019-04-07T12:40:43.117Z,23.73
2019-04-07T12:44:19.185Z,23.4
2019-04-07T12:48:44.081Z,23.61
2019-04-07T12:54:46.083Z,23.96
2019-04-07T12:58:27.726Z,23.74
2019-04-07T13:00:52.374Z,23.71
2019-04-07T13:05:44.326Z,23.49
2019-04-07T13:09:29.686Z,23.04
2019-04-07T13:13:13.515Z,22.83
2019-04-07T13:17:00.175Z,22.88
2019-04-07T13:22:58.757Z,21.83
2019-04-07T13:27:43.128Z,21.23
2019-04-07T13:31:26.266Z,20.67
2019-04-07T13:35:34.978Z,20.65
2019-04-07T13:39:12.010Z,21.25
2019-04-07T13:42:56.620Z,21
2019-04-07T13:46:37.242Z,20.54
2019-04-07T13:51:30.430Z,19.85
2019-04-07T13:57:36.029Z,19.85
2019-04-07T14:01:17.967Z,20.19
2019-04-07T14:04:56.245Z,20.29
2019-04-07T14:09:39.130Z,20.08
2019-04-07T14:13:17.832Z,19.52
2019-04-07T14:16:58.478Z,18.97
2019-04-07T14:20:37.543Z,18.58
2019-04-07T14:26:41.231Z,17.86
2019-04-07T14:30:22.351Z,17.23
2019-04-07T14:34:09.409Z,16.72
2019-04-07T14:37:46.215Z,16.56
2019-04-07T14:41:47.338Z,16.15
2019-04-07T14:47:54.572Z,15.76
2019-04-07T14:51:43.536Z,15.37
2019-04-07T14:55:29.608Z,15.23
2019-04-07T14:59:21.949Z,14.95
2019-04-07T15:00:29.217Z,14.87
2019-04-07T15:03:59.973Z,14.76
2019-04-07T15:07:44.011Z,14.53
2019-04-07T15:11:24.868Z,14.7
2019-04-07T15:14:55.691Z,14.45
2019-04-07T15:18:25.828Z,14.55
2019-04-07T15:21:55.910Z,14.71
2019-04-07T15:25:27.595Z,14.63
2019-04-07T15:28:59.370Z,14.58
2019-04-07T15:32:35.472Z,14.48
2019-04-07T15:36:08.886Z,14.11
2019-04-07T15:39:39.613Z,13.9
2019-04-07T15:43:11.146Z,13.62
2019-04-07T15:46:42.601Z,13.36
2019-04-07T15:50:13.799Z,13.28
2019-04-07T15:53:48.450Z,13.31
2019-04-07T15:57:22.018Z,13.1
2019-04-07T16:00:53.690Z,13.06
2019-04-07T16:04:27.850Z,13.23
2019-04-07T16:07:58.689Z,13.04
2019-04-07T16:11:30.210Z,12.96
2019-04-07T16:15:00.660Z,12.99
2019-04-07T16:18:30.811Z,12.88
2019-04-07T16:22:01.207Z,12.85
2019-04-07T16:25:32.169Z,12.83
2019-04-07T16:29:02.888Z,12.9
2019-04-07T16:32:33.862Z,12.92
2019-04-07T16:36:04.447Z,12.99
2019-04-07T16:39:34.997Z,12.99
2019-04-07T16:43:10.929Z,12.96
2019-04-07T16:46:45.681Z,12.88
2019-04-07T16:50:18.895Z,12.87
2019-04-07T16:53:50.995Z,12.87
2019-04-07T16:57:23.626Z,12.96
2019-04-07T17:00:17.049Z,12.88
2019-04-07T17:03:47.205Z,12.88
2019-04-07T17:07:18.121Z,12.85
2019-04-07T17:10:49.046Z,12.86
2019-04-07T17:14:19.142Z,12.84
2019-04-07T17:17:52.468Z,12.73
2019-04-07T17:21:23.630Z,12.78
2019-04-07T17:24:53.838Z,12.86
2019-04-07T17:28:23.929Z,12.84
2019-04-07T17:31:54.375Z,12.9
2019-04-07T17:35:24.543Z,13.02
2019-04-07T17:39:08.248Z,13.07
2019-04-07T17:42:39.859Z,13.11
2019-04-07T17:46:34.079Z,13.06
2019-04-07T17:50:45.871Z,13.11
2019-04-07T17:54:28.936Z,13.14
2019-04-07T17:58:08.765Z,13.17
2019-04-07T18:01:56.772Z,13.23
2019-04-07T18:05:37.633Z,13.38
2019-04-07T18:09:17.870Z,13.42
2019-04-07T18:15:54.384Z,13.26
2019-04-07T18:19:34.832Z,13.22
2019-04-07T18:23:17.145Z,13.06
2019-04-07T18:26:54.867Z,13.06
2019-04-07T18:30:40.788Z,13.05
2019-04-07T18:35:26.460Z,13.06
2019-04-07T18:39:16.031Z,13.02
2019-04-07T18:42:54.611Z,13.08
2019-04-07T18:49:00.147Z,12.83
2019-04-07T18:52:40.933Z,12.8
2019-04-07T18:56:21.383Z,12.81
2019-04-07T19:00:31.487Z,12.8
2019-04-07T19:04:16.918Z,12.83
2019-04-07T19:08:59.874Z,12.77
2019-04-07T19:12:47.735Z,12.8
2019-04-07T19:16:34.113Z,12.77
2019-04-07T19:20:15.085Z,12.77
2019-04-07T19:23:59.074Z,12.81
2019-04-07T19:27:38.914Z,12.85
2019-04-07T19:32:33.332Z,12.87
2019-04-07T19:36:23.977Z,12.86
2019-04-07T19:40:04.358Z,12.83
2019-04-07T19:46:07.285Z,12.84
2019-04-07T19:52:09.796Z,12.96
2019-04-07T19:55:55.539Z,12.9
2019-04-07T19:59:33.704Z,12.93
2019-04-07T20:03:20.104Z,12.94
2019-04-07T20:07:41.942Z,12.98
2019-04-07T20:11:28.508Z,13.01
2019-04-07T20:17:39.262Z,12.95
2019-04-07T20:22:28.434Z,12.86
2019-04-07T20:26:05.876Z,12.93
2019-04-07T20:29:58.374Z,12.9
2019-04-07T20:34:06.106Z,12.79
2019-04-07T20:37:47.302Z,12.76
2019-04-07T20:41:29.439Z,12.73
2019-04-07T20:45:40.732Z,12.66
2019-04-07T20:49:51.595Z,12.6
2019-04-07T20:53:32.405Z,12.61
2019-04-07T20:59:31.418Z,12.6
2019-04-07T21:02:56.223Z,12.45
2019-04-07T21:11:27.907Z,12.52
2019-04-07T21:15:21.011Z,12.55
2019-04-07T21:19:07.797Z,12.49
2019-04-07T21:22:45.198Z,12.3
2019-04-07T21:26:24.480Z,12.23
2019-04-07T21:30:02.345Z,12.34
2019-04-07T21:34:10.556Z,12.46
2019-04-07T21:37:53.408Z,12.51
2019-04-07T21:44:11.302Z,12.46
2019-04-07T21:47:49.203Z,12.59
2019-04-07T21:53:45.480Z,12.66
2019-04-07T21:59:43.652Z,12.63
2019-04-07T22:03:54.513Z,12.64
2019-04-07T22:07:33.557Z,12.65
2019-04-07T22:11:03.801Z,12.64
2019-04-07T22:14:37.478Z,12.64
2019-04-07T22:18:11.164Z,12.63
2019-04-07T22:21:41.287Z,12.68
2019-04-07T22:25:18.499Z,12.71
2019-04-07T22:28:48.714Z,12.75
2019-04-07T22:32:20.794Z,12.74
2019-04-07T22:35:53.298Z,12.69
2019-04-07T22:39:27.509Z,12.66
2019-04-07T22:42:59.617Z,12.63
2019-04-07T22:46:29.874Z,12.61
2019-04-07T22:50:03.112Z,12.66
2019-04-07T22:53:34.994Z,12.63
2019-04-07T22:57:08.161Z,12.64
2019-04-07T23:00:21.348Z,12.7
2019-04-07T23:03:51.758Z,12.71
2019-04-07T23:07:21.855Z,12.7
2019-04-07T23:10:51.909Z,12.73
2019-04-07T23:14:21.999Z,12.75
2019-04-07T23:17:52.172Z,12.65
2019-04-07T23:21:22.232Z,12.63
2019-04-07T23:24:53.043Z,12.59
2019-04-07T23:28:23.273Z,12.54
2019-04-07T23:31:53.518Z,12.5
2019-04-07T23:35:24.435Z,12.43
2019-04-07T23:38:54.516Z,12.44
2019-04-07T23:42:24.646Z,12.29
2019-04-07T23:45:54.772Z,12.35
2019-04-07T23:49:25.898Z,12.37
2019-04-07T23:54:04.648Z,12.22
2019-04-07T23:57:34.823Z,12.21
